createdAt,value
2022-09-04T00:05:45.743Z,66.34
2022-09-04T00:12:08.909Z,66.60
2022-09-04T00:18:29.064Z,67.27
2022-09-04T00:24:39.905Z,67.64
2022-09-04T00:30:56.870Z,67.82
2022-09-04T00:37:14.365Z,68.27
2022-09-04T00:43:59.276Z,69.93
2022-09-04T00:50:07.672Z,69.39
2022-09-04T00:56:27.361Z,69.67
2022-09-04T01:03:01.688Z,70.18
2022-09-04T01:09:32.215Z,70.05
2022-09-04T01:15:50.737Z,70.48
2022-09-04T01:22:14.335Z,70.75
2022-09-04T01:28:53.038Z,70.82
2022-09-04T01:35:16.001Z,71.15
2022-09-04T01:41:38.168Z,71.10
2022-09-04T01:47:55.802Z,71.55
2022-09-04T01:54:22.513Z,72.14
2022-09-04T02:00:25.641Z,72.86
2022-09-04T02:06:33.109Z,73.05
2022-09-04T02:12:58.372Z,72.94
2022-09-04T02:20:00.497Z,73.69
2022-09-04T02:26:24.073Z,73.47
2022-09-04T02:32:42.653Z,73.58
2022-09-04T02:39:24.997Z,73.88
2022-09-04T02:45:50.637Z,74.10
2022-09-04T02:52:15.184Z,74.15
2022-09-04T02:58:49.830Z,74.51
2022-09-04T03:05:20.441Z,75.13
2022-09-04T03:11:41.352Z,75.40
2022-09-04T03:18:04.483Z,76.81
2022-09-04T03:24:42.370Z,77.64
2022-09-04T03:30:45.755Z,76.94
2022-09-04T03:37:16.106Z,77.81
2022-09-04T03:43:45.601Z,77.24
2022-09-04T03:50:10.421Z,76.90
2022-09-04T03:56:30.295Z,76.75
2022-09-04T04:03:36.961Z,77.34
2022-09-04T04:10:45.737Z,77.33
2022-09-04T04:17:23.496Z,77.44
2022-09-04T04:23:40.331Z,77.46
2022-09-04T04:30:03.458Z,77.92
2022-09-04T04:36:29.468Z,79.03
2022-09-04T04:43:25.320Z,78.49
2022-09-04T04:50:06.413Z,78.15
2022-09-04T04:56:33.994Z,78.53
2022-09-04T05:02:47.943Z,79.47
2022-09-04T05:09:01.870Z,79.56
2022-09-04T05:16:07.987Z,80.28
2022-09-04T05:22:54.830Z,79.86
2022-09-04T05:29:19.895Z,79.66
2022-09-04T05:35:35.347Z,79.83
2022-09-04T05:42:06.768Z,79.13
2022-09-04T05:49:18.225Z,78.32
2022-09-04T05:56:10.972Z,76.55
2022-09-04T06:03:05.116Z,76.71
2022-09-04T06:09:36.002Z,74.85
2022-09-04T06:15:44.920Z,75.07
2022-09-04T06:22:14.661Z,74.42
2022-09-04T06:28:34.987Z,73.17
2022-09-04T06:35:18.252Z,72.31
2022-09-04T06:41:52.092Z,70.10
2022-09-04T06:48:32.861Z,61.56
2022-09-04T06:55:10.772Z,43.72
2022-09-04T07:01:48.935Z,35.45
2022-09-04T07:08:07.347Z,32.43
2022-09-04T07:14:54.872Z,36.96
2022-09-04T07:21:42.472Z,43.34
2022-09-04T07:28:21.886Z,46.10
2022-09-04T07:35:01.682Z,50.36
2022-09-04T07:41:22.903Z,51.14
2022-09-04T07:47:45.255Z,50.15
2022-09-04T07:53:58.207Z,50.36
2022-09-04T08:00:22.729Z,48.17
2022-09-04T08:07:11.395Z,49.72
2022-09-04T08:14:02.666Z,46.51
2022-09-04T08:20:39.013Z,45.95
2022-09-04T08:27:04.868Z,46.35
2022-09-04T08:33:51.219Z,45.75
2022-09-04T08:39:53.110Z,44.21
2022-09-04T08:46:11.645Z,43.96
2022-09-04T08:52:36.776Z,43.71
2022-09-04T08:58:48.215Z,44.31
2022-09-04T09:05:10.042Z,42.41
2022-09-04T09:11:58.055Z,42.70
2022-09-04T09:18:35.961Z,41.61
2022-09-04T09:25:08.538Z,40.24
2022-09-04T09:31:52.865Z,37.21
2022-09-04T09:38:37.720Z,36.52
2022-09-04T09:45:06.261Z,35.23
2022-09-04T09:51:45.569Z,32.13
2022-09-04T09:58:19.147Z,29.82
2022-09-04T10:04:48.711Z,28.83
2022-09-04T10:11:18.451Z,28.14
2022-09-04T10:17:41.442Z,28.17
2022-09-04T10:24:07.092Z,26.60
2022-09-04T10:30:22.238Z,23.63
2022-09-04T10:36:41.871Z,22.87
2022-09-04T10:43:23.361Z,21.53
2022-09-04T10:50:01.133Z,20.04
2022-09-04T10:56:16.272Z,20.51
2022-09-04T11:02:42.603Z,20.13
2022-09-04T11:09:18.499Z,20.30
2022-09-04T11:16:09.951Z,21.04
2022-09-04T11:22:41.229Z,21.16
2022-09-04T11:29:21.328Z,22.52
2022-09-04T11:36:06.048Z,20.16
2022-09-04T11:42:28.179Z,21.33
2022-09-04T11:48:41.144Z,20.10
2022-09-04T11:55:14.080Z,20.21
2022-09-04T12:02:07.968Z,19.72
2022-09-04T12:08:35.874Z,21.29
2022-09-04T12:15:23.469Z,20.85
2022-09-04T12:21:54.346Z,19.58
2022-09-04T12:28:37.965Z,21.70
2022-09-04T12:35:39.363Z,23.55
2022-09-04T12:42:31.597Z,20.44
2022-09-04T12:49:19.372Z,20.89
2022-09-04T12:55:49.187Z,21.57
2022-09-04T13:02:27.968Z,23.08
2022-09-04T13:08:45.717Z,22.28
2022-09-04T13:21:34.414Z,26.92
2022-09-04T13:35:51.722Z,24.47
2022-09-04T13:42:28.913Z,23.03
2022-09-04T13:56:56.735Z,25.78
2022-09-04T14:24:51.633Z,22.42
2022-09-04T14:31:10.787Z,24.49
2022-09-04T14:37:28.315Z,24.29
2022-09-04T14:43:40.227Z,25.10
2022-09-04T14:49:47.339Z,23.11
2022-09-04T14:57:13.730Z,26.88
2022-09-04T15:11:00.496Z,32.10
2022-09-04T15:25:47.971Z,34.87
2022-09-04T15:32:14.090Z,35.58
2022-09-04T15:38:27.297Z,35.64
2022-09-04T15:44:44.557Z,36.17
2022-09-04T15:51:21.932Z,36.66
2022-09-04T15:57:48.891Z,35.52
2022-09-04T19:13:21.176Z,51.97
2022-09-04T19:20:09.460Z,53.20
2022-09-04T19:26:41.064Z,53.09
2022-09-04T19:45:53.609Z,54.17
2022-09-04T20:08:05.233Z,56.58
2022-09-04T20:14:35.596Z,56.91
2022-09-04T20:21:12.787Z,57.15
2022-09-04T20:27:36.241Z,57.38
2022-09-04T20:35:13.835Z,58.35
2022-09-04T20:41:33.279Z,58.26
2022-09-04T20:53:00.033Z,58.47
2022-09-04T20:55:20.275Z,59.10
2022-09-04T21:03:07.588Z,58.68
2022-09-04T21:08:19.817Z,58.77
2022-09-04T21:14:44.946Z,59.49
2022-09-04T21:21:23.098Z,59.47
2022-09-04T21:27:56.231Z,59.54
2022-09-04T21:34:33.052Z,59.83
2022-09-04T21:41:14.455Z,60.25
2022-09-04T21:47:17.320Z,60.88
2022-09-04T21:53:25.022Z,60.09
2022-09-04T22:02:37.647Z,61.60
2022-09-04T22:06:29.253Z,61.33
2022-09-04T22:13:44.167Z,61.95
2022-09-04T22:20:18.809Z,62.18
2022-09-04T22:26:44.689Z,62.39
2022-09-04T22:33:13.859Z,62.48
2022-09-04T22:39:36.607Z,62.79
2022-09-04T22:52:47.327Z,62.08
2022-09-04T22:59:26.108Z,62.08
2022-09-04T23:13:18.089Z,61.97
2022-09-04T23:13:56.886Z,62.06
2022-09-04T23:26:36.197Z,62.03
2022-09-04T23:27:28.835Z,61.71
2022-09-04T23:34:07.193Z,61.70
2022-09-04T23:40:17.944Z,61.75
2022-09-04T23:46:29.247Z,62.29
2022-09-04T23:52:59.834Z,62.46
2022-09-04T23:59:45.998Z,62.41
